Time,TemperatureF,DewpointF,PressureIn,WindDirection,WindDirectionDegrees,WindSpeedMPH,WindSpeedGustMPH,Humidity,HourlyPrecipIn,Conditions,Clouds,dailyrainin,SoftwareType,DateUTC
2013-03-03 00:00:00,29.5,8.7,29.74,North,6,0.0,0.0,41,0.00,,---,0.00,VWS V14.01,2013-03-03 05:00:00,
2013-03-03 00:05:00,29.5,8.7,29.74,NNW,337,0.0,0.0,41,0.00,,---,0.00,VWS V14.01,2013-03-03 05:05:00,
2013-03-03 00:10:00,29.5,8.7,29.74,WNW,298,0.0,0.0,41,0.00,,---,0.00,VWS V14.01,2013-03-03 05:10:00,
2013-03-03 00:15:00,29.5,8.7,29.74,WNW,297,0.0,0.0,41,0.00,,---,0.00,VWS V14.01,2013-03-03 05:15:00,
2013-03-03 00:20:00,29.5,8.7,29.74,NE,52,0.0,0.0,41,0.00,,---,0.00,VWS V14.01,2013-03-03 05:20:00,
2013-03-03 00:25:00,29.7,8.9,29.71,NW,304,0.0,0.0,41,0.00,,---,0.00,VWS V14.01,2013-03-03 05:25:00,
2013-03-03 00:30:00,29.8,9.0,29.71,WNW,297,0.0,0.0,41,0.00,,---,0.00,VWS V14.01,2013-03-03 05:30:00,
2013-03-03 00:35:00,29.8,9.0,29.71,NNW,341,0.0,0.0,41,0.00,,---,0.00,VWS V14.01,2013-03-03 05:35:00,
2013-03-03 00:40:00,29.8,9.0,29.74,NNW,346,0.0,2.7,41,0.00,,---,0.00,VWS V14.01,2013-03-03 05:40:00,
2013-03-03 00:45:00,30.0,9.2,29.74,West,275,4.9,4.9,41,0.00,,---,0.00,VWS V14.01,2013-03-03 05:45:00,
2013-03-03 00:50:00,30.0,9.2,29.74,West,278,3.1,3.6,41,0.00,,---,0.00,VWS V14.01,2013-03-03 05:50:00,
2013-03-03 00:55:00,30.0,9.2,29.74,North,357,0.0,0.0,41,0.00,,---,0.00,VWS V14.01,2013-03-03 05:55:00,
2013-03-03 01:00:00,30.0,9.2,29.74,West,281,3.1,7.6,41,0.00,,---,0.00,VWS V14.01,2013-03-03 06:00:00,
2013-03-03 01:05:00,30.0,9.2,29.74,West,270,3.6,5.8,41,0.00,,---,0.00,VWS V14.01,2013-03-03 06:05:00,
2013-03-03 01:10:00,30.0,9.2,29.74,NNE,12,0.0,0.0,41,0.00,,---,0.00,VWS V14.01,2013-03-03 06:10:00,
2013-03-03 01:15:00,30.2,9.4,29.74,NNW,338,4.0,4.0,41,0.00,,---,0.00,VWS V14.01,2013-03-03 06:15:00,
2013-03-03 01:20:00,30.2,9.4,29.74,NNW,342,4.0,6.3,41,0.00,,---,0.00,VWS V14.01,2013-03-03 06:20:00,
2013-03-03 01:25:00,30.2,9.4,29.74,WSW,237,4.0,4.0,41,0.00,,---,0.00,VWS V14.01,2013-03-03 06:25:00,
2013-03-03 01:30:00,30.0,9.2,29.74,WSW,255,5.8,5.8,41,0.00,,---,0.00,VWS V14.01,2013-03-03 06:30:00,
2013-03-03 01:35:00,30.0,9.2,29.74,WNW,292,2.7,2.7,41,0.00,,---,0.00,VWS V14.01,2013-03-03 06:35:00,
2013-03-03 01:40:00,30.0,9.2,29.74,NNE,23,2.2,3.1,41,0.00,,---,0.00,VWS V14.01,2013-03-03 06:40:00,
2013-03-03 01:45:00,30.0,9.2,29.74,SW,234,0.0,0.0,41,0.00,,---,0.00,VWS V14.01,2013-03-03 06:45:00,
2013-03-03 01:50:00,30.2,9.4,29.74,NW,312,0.0,3.1,41,0.00,,---,0.00,VWS V14.01,2013-03-03 06:50:00,
2013-03-03 01:55:00,30.0,9.2,29.74,NW,320,0.0,0.0,41,0.00,,---,0.00,VWS V14.01,2013-03-03 06:55:00,
2013-03-03 02:00:00,30.0,9.2,29.74,North,353,2.7,2.7,41,0.00,,---,0.00,VWS V14.01,2013-03-03 07:00:00,
2013-03-03 02:05:00,30.2,9.4,29.74,NE,41,2.7,3.6,41,0.00,,---,0.00,VWS V14.01,2013-03-03 07:05:00,
2013-03-03 02:10:00,30.2,9.4,29.74,West,267,3.6,3.6,41,0.00,,---,0.00,VWS V14.01,2013-03-03 07:10:00,
2013-03-03 02:15:00,30.0,9.2,29.74,North,353,2.7,3.1,41,0.00,,---,0.00,VWS V14.01,2013-03-03 07:15:00,
2013-03-03 02:20:00,30.0,9.2,29.74,WSW,254,0.0,2.7,41,0.00,,---,0.00,VWS V14.01,2013-03-03 07:20:00,
2013-03-03 02:25:00,30.0,9.2,29.74,NW,322,3.1,3.1,41,0.00,,---,0.00,VWS V14.01,2013-03-03 07:25:00,
2013-03-03 02:30:00,30.0,9.2,29.74,WSW,258,3.1,3.6,41,0.00,,---,0.00,VWS V14.01,2013-03-03 07:30:00,
2013-03-03 02:35:00,29.8,9.0,29.74,NW,311,3.1,3.1,41,0.00,,---,0.00,VWS V14.01,2013-03-03 07:35:00,
2013-03-03 02:40:00,29.8,9.0,29.74,NNW,333,3.6,4.5,41,0.00,,---,0.00,VWS V14.01,2013-03-03 07:40:00,
2013-03-03 02:45:00,29.8,9.0,29.74,WSW,256,0.0,0.0,41,0.00,,---,0.00,VWS V14.01,2013-03-03 07:45:00,
2013-03-03 02:50:00,29.7,8.9,29.74,North,357,5.4,5.4,41,0.00,,---,0.00,VWS V14.01,2013-03-03 07:50:00,
2013-03-03 02:55:00,29.7,8.9,29.71,NNE,12,8.3,8.3,41,0.00,,---,0.00,VWS V14.01,2013-03-03 07:55:00,
2013-03-03 03:00:00,29.5,8.7,29.71,NW,316,4.0,4.0,41,0.00,,---,0.00,VWS V14.01,2013-03-03 08:00:00,
2013-03-03 03:05:00,29.5,8.7,29.71,NW,322,2.2,2.7,41,0.00,,---,0.00,VWS V14.01,2013-03-03 08:05:00,
2013-03-03 03:10:00,29.5,8.7,29.71,NNW,340,4.0,4.0,41,0.00,,---,0.00,VWS V14.01,2013-03-03 08:10:00,
2013-03-03 03:15:00,29.5,8.7,29.71,WNW,298,3.1,3.1,41,0.00,,---,0.00,VWS V14.01,2013-03-03 08:15:00,
2013-03-03 03:20:00,29.5,8.7,29.71,NW,326,0.0,0.0,41,0.00,,---,0.00,VWS V14.01,2013-03-03 08:20:00,
2013-03-03 03:25:00,29.5,8.7,29.71,NW,313,4.0,4.0,41,0.00,,---,0.00,VWS V14.01,2013-03-03 08:25:00,
2013-03-03 03:30:00,29.5,8.7,29.71,NNW,333,2.2,2.7,41,0.00,,---,0.00,VWS V14.01,2013-03-03 08:30:00,
2013-03-03 03:35:00,29.3,8.5,29.71,West,261,5.4,5.4,41,0.00,,---,0.00,VWS V14.01,2013-03-03 08:35:00,
2013-03-03 03:40:00,29.3,8.5,29.71,North,0,0.0,3.1,41,0.00,,---,0.00,VWS V14.01,2013-03-03 08:40:00,
2013-03-03 03:45:00,29.1,8.4,29.71,West,273,2.7,4.9,41,0.00,,---,0.00,VWS V14.01,2013-03-03 08:45:00,
2013-03-03 03:50:00,28.9,8.2,29.71,WSW,237,6.3,6.3,41,0.00,,---,0.00,VWS V14.01,2013-03-03 08:50:00,
2013-03-03 03:55:00,28.8,8.0,29.74,North,0,2.2,3.1,41,0.00,,---,0.00,VWS V14.01,2013-03-03 08:55:00,
2013-03-03 04:00:00,28.4,7.7,29.74,WNW,295,0.0,0.0,41,0.00,,---,0.00,VWS V14.01,2013-03-03 09:00:00,
2013-03-03 04:05:00,28.4,7.7,29.74,West,261,2.7,3.1,41,0.00,,---,0.00,VWS V14.01,2013-03-03 09:05:00,
2013-03-03 04:10:00,28.0,7.4,29.74,WNW,287,3.1,3.1,41,0.00,,---,0.00,VWS V14.01,2013-03-03 09:10:00,
2013-03-03 04:15:00,27.9,7.2,29.74,West,273,0.0,0.0,41,0.00,,---,0.00,VWS V14.01,2013-03-03 09:15:00,
2013-03-03 04:20:00,27.9,7.2,29.74,NW,308,0.0,0.0,41,0.00,,---,0.00,VWS V14.01,2013-03-03 09:20:00,
2013-03-03 04:25:00,27.9,7.2,29.71,West,263,0.0,0.0,41,0.00,,---,0.00,VWS V14.01,2013-03-03 09:25:00,
2013-03-03 04:30:00,27.9,7.2,29.71,NNE,23,3.1,5.4,41,0.00,,---,0.00,VWS V14.01,2013-03-03 09:30:00,
2013-03-03 04:35:00,27.9,7.2,29.71,WSW,254,3.6,4.0,41,0.00,,---,0.00,VWS V14.01,2013-03-03 09:35:00,
2013-03-03 04:40:00,27.9,7.2,29.74,West,276,3.1,3.6,41,0.00,,---,0.00,VWS V14.01,2013-03-03 09:40:00,
2013-03-03 04:45:00,28.0,7.4,29.74,North,4,0.0,0.0,41,0.00,,---,0.00,VWS V14.01,2013-03-03 09:45:00,
2013-03-03 04:50:00,27.9,7.2,29.74,West,268,4.0,4.0,41,0.00,,---,0.00,VWS V14.01,2013-03-03 09:50:00,
2013-03-03 04:55:00,27.9,7.2,29.74,North,3,0.0,2.2,41,0.00,,---,0.00,VWS V14.01,2013-03-03 09:55:00,
2013-03-03 05:00:00,27.9,7.2,29.74,SW,236,0.0,0.0,41,0.00,,---,0.00,VWS V14.01,2013-03-03 10:00:00,
2013-03-03 05:05:00,27.9,7.2,29.74,WSW,238,0.0,0.0,41,0.00,,---,0.00,VWS V14.01,2013-03-03 10:05:00,
2013-03-03 05:10:00,27.9,7.2,29.74,West,281,6.3,6.3,41,0.00,,---,0.00,VWS V14.01,2013-03-03 10:10:00,
2013-03-03 05:15:00,27.9,7.2,29.74,West,279,3.1,3.1,41,0.00,,---,0.00,VWS V14.01,2013-03-03 10:15:00,
2013-03-03 05:20:00,27.9,7.2,29.74,WNW,297,3.1,3.6,41,0.00,,---,0.00,VWS V14.01,2013-03-03 10:20:00,
2013-03-03 05:25:00,27.9,7.2,29.74,WSW,248,5.4,5.4,41,0.00,,---,0.00,VWS V14.01,2013-03-03 10:25:00,
2013-03-03 05:30:00,27.9,7.2,29.74,West,272,0.0,0.0,41,0.00,,---,0.00,VWS V14.01,2013-03-03 10:30:00,
2013-03-03 05:35:00,27.7,7.1,29.74,West,269,0.0,0.0,41,0.00,,---,0.00,VWS V14.01,2013-03-03 10:35:00,
2013-03-03 05:40:00,27.7,7.1,29.74,WNW,282,2.7,3.1,41,0.00,,---,0.00,VWS V14.01,2013-03-03 10:40:00,
2013-03-03 05:45:00,27.5,6.9,29.74,WSW,254,3.1,4.9,41,0.00,,---,0.00,VWS V14.01,2013-03-03 10:45:00,
2013-03-03 05:50:00,27.5,6.9,29.74,NW,304,3.1,3.1,41,0.00,,---,0.00,VWS V14.01,2013-03-03 10:50:00,
2013-03-03 05:55:00,27.5,6.9,29.74,West,278,4.0,4.0,41,0.00,,---,0.00,VWS V14.01,2013-03-03 10:55:00,
2013-03-03 06:00:00,27.3,6.7,29.74,WSW,241,2.7,4.0,41,0.00,,---,0.00,VWS V14.01,2013-03-03 11:00:00,
2013-03-03 06:05:00,27.1,6.6,29.74,WSW,242,2.7,2.7,41,0.00,,---,0.00,VWS V14.01,2013-03-03 11:05:00,
2013-03-03 06:10:00,27.0,6.4,29.74,NW,322,0.0,0.0,41,0.00,,---,0.00,VWS V14.01,2013-03-03 11:10:00,
2013-03-03 06:15:00,27.0,6.4,29.74,SW,236,0.0,2.2,41,0.00,,---,0.00,VWS V14.01,2013-03-03 11:15:00,
2013-03-03 06:20:00,27.0,6.4,29.74,WNW,290,2.7,2.7,41,0.00,,---,0.00,VWS V14.01,2013-03-03 11:20:00,
2013-03-03 06:25:00,26.8,6.2,29.74,WNW,285,4.0,4.0,41,0.00,,---,0.00,VWS V14.01,2013-03-03 11:25:00,
2013-03-03 06:30:00,27.0,6.4,29.74,WNW,288,3.6,3.6,41,0.00,,---,0.00,VWS V14.01,2013-03-03 11:30:00,
2013-03-03 06:35:00,27.0,6.4,29.74,ENE,61,3.1,3.1,41,0.00,,---,0.00,VWS V14.01,2013-03-03 11:35:00,
2013-03-03 06:40:00,26.8,6.2,29.74,WSW,255,4.9,4.9,41,0.00,,---,0.00,VWS V14.01,2013-03-03 11:40:00,
2013-03-03 06:45:00,27.0,6.4,29.74,WNW,283,5.4,5.4,41,0.00,,---,0.00,VWS V14.01,2013-03-03 11:45:00,
2013-03-03 06:50:00,27.1,6.6,29.74,West,274,4.0,4.9,41,0.00,,---,0.00,VWS V14.01,2013-03-03 11:50:00,
2013-03-03 06:55:00,27.1,6.6,29.74,WSW,257,0.0,0.0,41,0.00,,---,0.00,VWS V14.01,2013-03-03 11:55:00,
2013-03-03 07:00:00,27.3,6.7,29.74,West,275,3.1,4.0,41,0.00,,---,0.00,VWS V14.01,2013-03-03 12:00:00,
2013-03-03 07:05:00,27.5,6.9,29.74,WNW,300,3.1,3.6,41,0.00,,---,0.00,VWS V14.01,2013-03-03 12:05:00,
2013-03-03 07:10:00,27.7,7.1,29.74,NNE,15,0.0,0.0,41,0.00,,---,0.00,VWS V14.01,2013-03-03 12:10:00,
2013-03-03 07:15:00,27.7,7.1,29.74,West,271,3.6,3.6,41,0.00,,---,0.00,VWS V14.01,2013-03-03 12:15:00,
2013-03-03 07:20:00,27.7,7.1,29.74,West,277,0.0,0.0,41,0.00,,---,0.00,VWS V14.01,2013-03-03 12:20:00,
2013-03-03 07:25:00,27.9,7.2,29.74,WNW,282,0.0,3.6,41,0.00,,---,0.00,VWS V14.01,2013-03-03 12:25:00,
2013-03-03 07:30:00,28.0,7.4,29.74,North,353,0.0,2.2,41,0.00,,---,0.00,VWS V14.01,2013-03-03 12:30:00,
2013-03-03 07:35:00,28.6,7.9,29.74,West,277,2.2,2.2,41,0.00,,---,0.00,VWS V14.01,2013-03-03 12:35:00,
2013-03-03 07:40:00,28.9,8.2,29.74,NE,49,0.0,0.0,41,0.00,,---,0.00,VWS V14.01,2013-03-03 12:40:00,
2013-03-03 07:45:00,29.8,9.0,29.74,WSW,242,2.2,2.2,41,0.00,,---,0.00,VWS V14.01,2013-03-03 12:45:00,
2013-03-03 07:50:00,30.2,9.4,29.74,West,272,6.3,6.3,41,0.00,,---,0.00,VWS V14.01,2013-03-03 12:50:00,
2013-03-03 07:55:00,30.2,9.4,29.74,West,261,5.8,6.3,41,0.00,,---,0.00,VWS V14.01,2013-03-03 12:55:00,
2013-03-03 08:00:00,30.2,9.4,29.74,NNE,16,0.0,0.0,41,0.00,,---,0.00,VWS V14.01,2013-03-03 13:00:00,
2013-03-03 08:05:00,30.0,9.2,29.74,NNW,341,3.1,3.1,41,0.00,,---,0.00,VWS V14.01,2013-03-03 13:05:00,
2013-03-03 08:10:00,30.2,9.4,29.74,NNE,29,2.7,2.7,41,0.00,,---,0.00,VWS V14.01,2013-03-03 13:10:00,
2013-03-03 08:15:00,30.2,9.4,29.74,NNE,27,5.8,7.6,41,0.00,,---,0.00,VWS V14.01,2013-03-03 13:15:00,
2013-03-03 08:20:00,30.2,9.4,29.74,WNW,302,3.6,3.6,41,0.00,,---,0.00,VWS V14.01,2013-03-03 13:20:00,
2013-03-03 08:25:00,30.4,9.0,29.74,North,357,5.4,8.7,40,0.00,,---,0.00,VWS V14.01,2013-03-03 13:25:00,
2013-03-03 08:30:00,30.6,9.1,29.74,NNE,13,5.4,5.4,40,0.00,,---,0.00,VWS V14.01,2013-03-03 13:30:00,
2013-03-03 08:35:00,31.1,9.6,29.74,NNW,337,0.0,3.6,40,0.00,,---,0.00,VWS V14.01,2013-03-03 13:35:00,
2013-03-03 08:40:00,31.5,9.9,29.74,ESE,107,3.1,3.1,40,0.00,,---,0.00,VWS V14.01,2013-03-03 13:40:00,
2013-03-03 08:45:00,31.5,9.9,29.74,East,91,3.6,3.6,40,0.00,,---,0.00,VWS V14.01,2013-03-03 13:45:00,
2013-03-03 08:50:00,31.1,9.6,29.74,North,6,4.9,4.9,40,0.00,,---,0.00,VWS V14.01,2013-03-03 13:50:00,
2013-03-03 08:55:00,31.3,9.8,29.74,North,3,3.1,3.1,40,0.00,,---,0.00,VWS V14.01,2013-03-03 13:55:00,
2013-03-03 09:00:00,31.1,9.6,29.74,NNE,28,2.2,3.6,40,0.00,,---,0.00,VWS V14.01,2013-03-03 14:00:00,
2013-03-03 09:05:00,31.5,9.9,29.74,NNW,327,3.6,3.6,40,0.00,,---,0.00,VWS V14.01,2013-03-03 14:05:00,
2013-03-03 09:10:00,31.8,10.3,29.74,WSW,258,4.0,5.4,40,0.00,,---,0.00,VWS V14.01,2013-03-03 14:10:00,
2013-03-03 09:15:00,32.2,10.6,29.74,West,280,4.0,4.0,40,0.00,,---,0.00,VWS V14.01,2013-03-03 14:15:00,
2013-03-03 09:20:00,32.4,10.8,29.74,NNW,342,0.0,0.0,40,0.00,,---,0.00,VWS V14.01,2013-03-03 14:20:00,
2013-03-03 09:25:00,32.0,10.4,29.71,North,11,4.9,4.9,40,0.00,,---,0.00,VWS V14.01,2013-03-03 14:25:00,
2013-03-03 09:30:00,31.3,9.8,29.71,North,353,0.0,0.0,40,0.00,,---,0.00,VWS V14.01,2013-03-03 14:30:00,
2013-03-03 09:35:00,31.6,10.1,29.71,NE,48,0.0,0.0,40,0.00,,---,0.00,VWS V14.01,2013-03-03 14:35:00,
2013-03-03 09:40:00,32.0,10.4,29.74,NE,41,2.2,3.6,40,0.00,,---,0.00,VWS V14.01,2013-03-03 14:40:00,
2013-03-03 09:45:00,32.2,10.6,29.74,North,0,2.2,2.2,40,0.00,,---,0.00,VWS V14.01,2013-03-03 14:45:00,
2013-03-03 09:50:00,32.0,10.4,29.74,NNE,14,6.3,6.3,40,0.00,,---,0.00,VWS V14.01,2013-03-03 14:50:00,
2013-03-03 09:55:00,31.8,10.3,29.74,NNE,12,5.4,5.4,40,0.00,,---,0.00,VWS V14.01,2013-03-03 14:55:00,
2013-03-03 10:00:00,32.2,10.6,29.74,NW,314,2.2,4.0,40,0.00,,---,0.00,VWS V14.01,2013-03-03 15:00:00,
2013-03-03 10:05:00,32.5,10.9,29.74,NNW,348,5.8,5.8,40,0.00,,---,0.00,VWS V14.01,2013-03-03 15:05:00,
2013-03-03 10:10:00,32.9,11.2,29.74,NNW,336,3.1,3.1,40,0.00,,---,0.00,VWS V14.01,2013-03-03 15:10:00,
2013-03-03 10:15:00,33.4,11.7,29.74,NNE,21,0.0,3.1,40,0.00,,---,0.00,VWS V14.01,2013-03-03 15:15:00,
2013-03-03 10:20:00,33.6,11.9,29.74,NNE,22,5.8,5.8,40,0.00,,---,0.00,VWS V14.01,2013-03-03 15:20:00,
2013-03-03 10:25:00,33.6,11.9,29.74,West,275,3.1,4.0,40,0.00,,---,0.00,VWS V14.01,2013-03-03 15:25:00,
2013-03-03 10:30:00,34.0,12.2,29.74,NW,310,2.2,5.8,40,0.00,,---,0.00,VWS V14.01,2013-03-03 15:30:00,
2013-03-03 10:35:00,34.2,12.4,29.74,NNE,14,4.0,10.1,40,0.00,,---,0.00,VWS V14.01,2013-03-03 15:35:00,
2013-03-03 10:40:00,34.3,12.5,29.71,NW,312,5.4,5.4,40,0.00,,---,0.00,VWS V14.01,2013-03-03 15:40:00,
2013-03-03 10:45:00,34.9,13.0,29.71,SW,218,3.1,4.9,40,0.00,,---,0.00,VWS V14.01,2013-03-03 15:45:00,
2013-03-03 10:50:00,35.4,13.5,29.71,NNE,30,6.3,7.6,40,0.00,,---,0.00,VWS V14.01,2013-03-03 15:50:00,
2013-03-03 10:55:00,35.1,13.2,29.71,North,1,7.2,8.1,40,0.00,,---,0.00,VWS V14.01,2013-03-03 15:55:00,
2013-03-03 11:00:00,35.1,13.2,29.71,NE,37,5.8,5.8,40,0.00,,---,0.00,VWS V14.01,2013-03-03 16:00:00,
2013-03-03 11:05:00,35.2,13.4,29.71,NNW,345,5.8,8.7,40,0.00,,---,0.00,VWS V14.01,2013-03-03 16:05:00,
2013-03-03 11:10:00,36.1,14.2,29.71,North,357,5.8,7.6,40,0.00,,---,0.00,VWS V14.01,2013-03-03 16:10:00,
2013-03-03 11:15:00,36.3,14.3,29.71,North,0,4.9,11.0,40,0.00,,---,0.00,VWS V14.01,2013-03-03 16:15:00,
2013-03-03 11:20:00,36.9,14.8,29.71,NW,324,8.1,8.1,40,0.00,,---,0.00,VWS V14.01,2013-03-03 16:20:00,
2013-03-03 11:25:00,37.2,15.1,29.71,WNW,292,4.9,5.4,40,0.00,,---,0.00,VWS V14.01,2013-03-03 16:25:00,
2013-03-03 11:30:00,37.6,14.9,29.71,NW,320,2.7,3.1,39,0.00,,---,0.00,VWS V14.01,2013-03-03 16:30:00,
2013-03-03 11:35:00,37.9,15.2,29.71,WSW,245,2.7,4.0,39,0.00,,---,0.00,VWS V14.01,2013-03-03 16:35:00,
2013-03-03 11:40:00,37.0,15.0,29.71,NNW,348,3.6,6.3,40,0.00,,---,0.00,VWS V14.01,2013-03-03 16:40:00,
2013-03-03 11:45:00,37.4,14.7,29.71,West,262,4.0,4.0,39,0.00,,---,0.00,VWS V14.01,2013-03-03 16:45:00,
2013-03-03 11:50:00,37.9,15.2,29.71,North,0,2.7,6.3,39,0.00,,---,0.00,VWS V14.01,2013-03-03 16:50:00,
2013-03-03 11:55:00,37.0,15.0,29.71,NNE,15,5.8,7.6,40,0.00,,---,0.00,VWS V14.01,2013-03-03 16:55:00,
2013-03-03 12:00:00,37.4,14.7,29.71,NNW,332,2.2,7.6,39,0.00,,---,0.00,VWS V14.01,2013-03-03 17:00:00,
2013-03-03 12:05:00,38.5,15.7,29.71,West,268,2.7,5.8,39,0.00,,---,0.00,VWS V14.01,2013-03-03 17:05:00,
2013-03-03 12:10:00,39.2,16.3,29.71,NNE,15,2.7,2.7,39,0.00,,---,0.00,VWS V14.01,2013-03-03 17:10:00,
2013-03-03 12:15:00,39.2,16.3,29.71,West,272,4.9,4.9,39,0.00,,---,0.00,VWS V14.01,2013-03-03 17:15:00,
2013-03-03 12:20:00,38.8,16.0,29.71,WNW,300,3.1,3.1,39,0.00,,---,0.00,VWS V14.01,2013-03-03 17:20:00,
2013-03-03 12:25:00,38.1,15.4,29.71,NNW,334,2.2,2.2,39,0.00,,---,0.00,VWS V14.01,2013-03-03 17:25:00,
2013-03-03 12:30:00,37.4,14.7,29.71,WNW,288,4.9,14.1,39,0.00,,---,0.00,VWS V14.01,2013-03-03 17:30:00,
2013-03-03 12:35:00,36.7,14.6,29.71,West,261,3.6,5.8,40,0.00,,---,0.00,VWS V14.01,2013-03-03 17:35:00,
2013-03-03 12:40:00,37.2,15.1,29.71,ENE,68,0.0,4.0,40,0.00,,---,0.00,VWS V14.01,2013-03-03 17:40:00,
2013-03-03 12:45:00,36.7,14.6,29.71,NE,37,11.0,11.0,40,0.00,,---,0.00,VWS V14.01,2013-03-03 17:45:00,
2013-03-03 12:50:00,36.1,14.2,29.71,NNE,31,4.0,6.3,40,0.00,,---,0.00,VWS V14.01,2013-03-03 17:50:00,
2013-03-03 12:55:00,36.5,14.5,29.68,NNE,16,4.0,4.0,40,0.00,,---,0.00,VWS V14.01,2013-03-03 17:55:00,
2013-03-03 13:00:00,37.4,14.7,29.68,NW,308,5.4,7.6,39,0.00,,---,0.00,VWS V14.01,2013-03-03 18:00:00,
2013-03-03 13:05:00,36.3,14.3,29.68,NE,44,8.7,8.7,40,0.00,,---,0.00,VWS V14.01,2013-03-03 18:05:00,
2013-03-03 13:10:00,36.1,14.2,29.68,NW,316,3.6,5.8,40,0.00,,---,0.00,VWS V14.01,2013-03-03 18:10:00,
2013-03-03 13:15:00,36.9,14.8,29.68,NNW,333,4.9,6.3,40,0.00,,---,0.00,VWS V14.01,2013-03-03 18:15:00,
2013-03-03 13:20:00,36.3,14.3,29.68,NE,55,5.4,6.3,40,0.00,,---,0.00,VWS V14.01,2013-03-03 18:20:00,
2013-03-03 13:25:00,36.5,14.5,29.68,West,267,5.4,6.3,40,0.00,,---,0.00,VWS V14.01,2013-03-03 18:25:00,
2013-03-03 13:30:00,36.9,14.8,29.68,North,11,4.9,5.4,40,0.00,,---,0.00,VWS V14.01,2013-03-03 18:30:00,
2013-03-03 13:35:00,37.2,15.1,29.68,NW,326,4.9,4.9,40,0.00,,---,0.00,VWS V14.01,2013-03-03 18:35:00,
2013-03-03 13:40:00,37.6,14.9,29.68,NNE,14,17.0,17.0,39,0.00,,---,0.00,VWS V14.01,2013-03-03 18:40:00,
2013-03-03 13:45:00,36.7,14.6,29.68,North,353,7.2,7.2,40,0.00,,---,0.00,VWS V14.01,2013-03-03 18:45:00,
2013-03-03 13:50:00,37.0,15.0,29.68,NW,320,8.3,8.7,40,0.00,,---,0.00,VWS V14.01,2013-03-03 18:50:00,
2013-03-03 13:55:00,37.8,15.0,29.68,NW,317,4.5,8.1,39,0.00,,---,0.00,VWS V14.01,2013-03-03 18:55:00,
2013-03-03 14:00:00,38.1,15.4,29.68,NNW,328,8.7,10.1,39,0.00,,---,0.00,VWS V14.01,2013-03-03 19:00:00,
2013-03-03 14:05:00,37.9,15.2,29.68,NNE,22,4.5,4.5,39,0.00,,---,0.00,VWS V14.01,2013-03-03 19:05:00,
2013-03-03 14:10:00,37.8,15.0,29.68,North,7,4.9,5.4,39,0.00,,---,0.00,VWS V14.01,2013-03-03 19:10:00,
2013-03-03 14:15:00,37.6,14.9,29.68,NW,318,4.5,7.6,39,0.00,,---,0.00,VWS V14.01,2013-03-03 19:15:00,
2013-03-03 14:20:00,37.8,15.0,29.68,North,11,7.6,15.0,39,0.00,,---,0.00,VWS V14.01,2013-03-03 19:20:00,
2013-03-03 14:25:00,37.9,15.2,29.68,NE,38,8.3,8.3,39,0.00,,---,0.00,VWS V14.01,2013-03-03 19:25:00,
2013-03-03 14:30:00,37.2,15.1,29.68,NNW,342,5.4,5.4,40,0.00,,---,0.00,VWS V14.01,2013-03-03 19:30:00,
2013-03-03 14:35:00,36.9,14.8,29.68,WSW,245,3.6,4.9,40,0.00,,---,0.00,VWS V14.01,2013-03-03 19:35:00,
2013-03-03 14:40:00,36.9,14.8,29.68,WNW,287,5.4,6.3,40,0.00,,---,0.00,VWS V14.01,2013-03-03 19:40:00,
2013-03-03 14:45:00,37.2,15.1,29.68,NW,313,5.8,8.3,40,0.00,,---,0.00,VWS V14.01,2013-03-03 19:45:00,
2013-03-03 14:50:00,36.7,14.6,29.68,WNW,288,4.0,4.0,40,0.00,,---,0.00,VWS V14.01,2013-03-03 19:50:00,
2013-03-03 14:55:00,37.4,14.7,29.68,WNW,295,2.7,6.3,39,0.00,,---,0.00,VWS V14.01,2013-03-03 19:55:00,
2013-03-03 15:00:00,36.9,14.8,29.68,NNW,335,8.3,8.3,40,0.00,,---,0.00,VWS V14.01,2013-03-03 20:00:00,
2013-03-03 15:05:00,37.6,14.9,29.68,NNE,18,0.0,4.0,39,0.00,,---,0.00,VWS V14.01,2013-03-03 20:05:00,
2013-03-03 15:10:00,37.4,14.7,29.68,NW,321,4.0,6.7,39,0.00,,---,0.00,VWS V14.01,2013-03-03 20:10:00,
2013-03-03 15:15:00,37.2,15.1,29.68,North,8,8.1,8.1,40,0.00,,---,0.00,VWS V14.01,2013-03-03 20:15:00,
2013-03-03 15:20:00,36.9,14.8,29.68,NNE,24,3.6,8.1,40,0.00,,---,0.00,VWS V14.01,2013-03-03 20:20:00,
2013-03-03 15:25:00,36.3,14.3,29.68,NNE,32,6.3,10.5,40,0.00,,---,0.00,VWS V14.01,2013-03-03 20:25:00,
2013-03-03 15:30:00,36.9,14.8,29.68,NNW,335,8.3,10.1,40,0.00,,---,0.00,VWS V14.01,2013-03-03 20:30:00,
2013-03-03 15:35:00,36.9,14.8,29.68,North,0,3.6,7.6,40,0.00,,---,0.00,VWS V14.01,2013-03-03 20:35:00,
2013-03-03 15:40:00,37.2,15.1,29.68,SSW,199,6.3,6.7,40,0.00,,---,0.00,VWS V14.01,2013-03-03 20:40:00,
2013-03-03 15:44:00,37.2,15.1,29.68,West,281,3.6,8.3,40,0.00,,---,0.00,VWS V14.01,2013-03-03 20:44:00,
2013-03-03 15:49:00,37.6,14.9,29.68,WNW,289,7.2,8.1,39,0.00,,---,0.00,VWS V14.01,2013-03-03 20:49:00,
2013-03-03 15:55:00,37.6,14.9,29.68,NNE,17,5.8,8.1,39,0.00,,---,0.00,VWS V14.01,2013-03-03 20:55:00,
2013-03-03 16:00:00,37.9,15.2,29.68,West,266,2.7,4.9,39,0.00,,---,0.00,VWS V14.01,2013-03-03 21:00:00,
2013-03-03 16:04:00,37.2,15.1,29.68,North,0,4.9,4.9,40,0.00,,---,0.00,VWS V14.01,2013-03-03 21:04:00,
2013-03-03 16:10:00,36.9,14.8,29.68,NW,311,3.6,4.0,40,0.00,,---,0.00,VWS V14.01,2013-03-03 21:10:00,
2013-03-03 16:15:00,36.3,14.3,29.68,NW,304,3.6,5.8,40,0.00,,---,0.00,VWS V14.01,2013-03-03 21:15:00,
2013-03-03 16:19:00,36.5,14.5,29.68,North,6,6.3,6.3,40,0.00,,---,0.00,VWS V14.01,2013-03-03 21:19:00,
2013-03-03 16:24:00,36.7,14.6,29.68,North,8,2.2,5.4,40,0.00,,---,0.00,VWS V14.01,2013-03-03 21:24:00,
2013-03-03 16:30:00,36.5,14.5,29.68,NE,47,4.9,5.4,40,0.00,,---,0.00,VWS V14.01,2013-03-03 21:30:00,
2013-03-03 16:35:00,36.3,14.3,29.68,North,353,2.7,5.8,40,0.00,,---,0.00,VWS V14.01,2013-03-03 21:35:00,
2013-03-03 16:39:00,35.8,13.8,29.68,NNW,336,4.0,5.8,40,0.00,,---,0.00,VWS V14.01,2013-03-03 21:39:00,
2013-03-03 16:44:00,35.6,13.7,29.68,NW,321,0.0,5.4,40,0.00,,---,0.00,VWS V14.01,2013-03-03 21:44:00,
2013-03-03 16:49:00,35.2,13.4,29.68,NW,325,3.6,6.3,40,0.00,,---,0.00,VWS V14.01,2013-03-03 21:49:00,
2013-03-03 16:54:00,35.2,13.4,29.68,North,0,0.0,3.6,40,0.00,,---,0.00,VWS V14.01,2013-03-03 21:54:00,
2013-03-03 16:59:00,35.6,13.7,29.68,West,271,4.0,4.0,40,0.00,,---,0.00,VWS V14.01,2013-03-03 21:59:00,
2013-03-03 17:05:00,35.8,13.8,29.68,SSW,210,4.9,6.3,40,0.00,,---,0.00,VWS V14.01,2013-03-03 22:05:00,
2013-03-03 17:10:00,35.8,13.8,29.68,West,281,2.7,4.0,40,0.00,,---,0.00,VWS V14.01,2013-03-03 22:10:00,
2013-03-03 17:15:00,35.6,13.7,29.68,NNE,30,4.0,11.0,40,0.00,,---,0.00,VWS V14.01,2013-03-03 22:15:00,
2013-03-03 17:20:00,35.1,13.2,29.68,North,350,2.7,6.3,40,0.00,,---,0.00,VWS V14.01,2013-03-03 22:20:00,
2013-03-03 17:25:00,34.7,12.9,29.68,North,353,5.8,8.3,40,0.00,,---,0.00,VWS V14.01,2013-03-03 22:25:00,
2013-03-03 17:30:00,34.5,12.7,29.68,NE,42,6.3,7.2,40,0.00,,---,0.00,VWS V14.01,2013-03-03 22:30:00,
2013-03-03 17:35:00,34.2,12.4,29.68,NW,312,2.2,5.4,40,0.00,,---,0.00,VWS V14.01,2013-03-03 22:35:00,
2013-03-03 17:40:00,33.8,12.1,29.71,NNW,330,4.0,5.4,40,0.00,,---,0.00,VWS V14.01,2013-03-03 22:40:00,
2013-03-03 17:45:00,33.6,11.9,29.71,ENE,73,0.0,2.7,40,0.00,,---,0.00,VWS V14.01,2013-03-03 22:45:00,
2013-03-03 17:50:00,33.4,11.7,29.71,North,357,2.7,3.1,40,0.00,,---,0.00,VWS V14.01,2013-03-03 22:50:00,
2013-03-03 17:55:00,33.3,11.6,29.71,North,8,3.1,5.8,40,0.00,,---,0.00,VWS V14.01,2013-03-03 22:55:00,
2013-03-03 18:00:00,33.1,11.4,29.71,North,0,5.4,6.3,40,0.00,,---,0.00,VWS V14.01,2013-03-03 23:00:00,
2013-03-03 18:05:00,32.9,11.2,29.71,NW,320,5.4,5.4,40,0.00,,---,0.00,VWS V14.01,2013-03-03 23:05:00,
2013-03-03 18:10:00,32.7,11.1,29.71,ENE,60,3.6,3.6,40,0.00,,---,0.00,VWS V14.01,2013-03-03 23:10:00,
2013-03-03 18:15:00,32.7,11.1,29.71,NNE,18,2.2,3.6,40,0.00,,---,0.00,VWS V14.01,2013-03-03 23:15:00,
2013-03-03 18:20:00,32.5,10.9,29.71,NW,317,4.9,4.9,40,0.00,,---,0.00,VWS V14.01,2013-03-03 23:20:00,
2013-03-03 18:25:00,32.5,10.9,29.71,WNW,290,0.0,3.1,40,0.00,,---,0.00,VWS V14.01,2013-03-03 23:25:00,
2013-03-03 18:30:00,32.5,10.9,29.71,North,353,0.0,0.0,40,0.00,,---,0.00,VWS V14.01,2013-03-03 23:30:00,
2013-03-03 18:34:00,32.7,11.1,29.71,South,169,4.0,4.9,40,0.00,,---,0.00,VWS V14.01,2013-03-03 23:34:00,
2013-03-03 18:39:00,32.7,11.1,29.71,NNE,33,5.4,5.4,40,0.00,,---,0.00,VWS V14.01,2013-03-03 23:39:00,
2013-03-03 18:44:00,32.9,11.2,29.71,WSW,246,4.0,4.0,40,0.00,,---,0.00,VWS V14.01,2013-03-03 23:44:00,
2013-03-03 18:49:00,33.1,11.4,29.71,North,0,2.7,7.6,40,0.00,,---,0.00,VWS V14.01,2013-03-03 23:49:00,
2013-03-03 18:54:00,33.1,11.4,29.71,North,0,5.8,5.8,40,0.00,,---,0.00,VWS V14.01,2013-03-03 23:54:00,
2013-03-03 18:59:00,33.1,11.4,29.71,NNE,30,0.0,3.6,40,0.00,,---,0.00,VWS V14.01,2013-03-03 23:59:00,
2013-03-03 19:04:00,33.1,11.4,29.71,North,353,3.6,6.3,40,0.00,,---,0.00,VWS V14.01,2013-03-04 00:04:00,
2013-03-03 19:09:00,32.9,11.2,29.71,North,4,3.1,5.8,40,0.00,,---,0.00,VWS V14.01,2013-03-04 00:09:00,
2013-03-03 19:14:00,32.9,11.2,29.71,NW,323,2.7,4.0,40,0.00,,---,0.00,VWS V14.01,2013-03-04 00:14:00,
2013-03-03 19:19:00,32.9,11.2,29.71,ENE,75,2.7,5.4,40,0.00,,---,0.00,VWS V14.01,2013-03-04 00:19:00,
2013-03-03 19:24:00,32.7,11.1,29.74,NNW,338,5.4,5.4,40,0.00,,---,0.00,VWS V14.01,2013-03-04 00:24:00,
2013-03-03 19:29:00,32.5,10.9,29.74,NW,308,2.2,4.9,40,0.00,,---,0.00,VWS V14.01,2013-03-04 00:29:00,
2013-03-03 19:34:00,32.5,10.9,29.74,NNW,346,5.4,5.4,40,0.00,,---,0.00,VWS V14.01,2013-03-04 00:34:00,
2013-03-03 19:39:00,32.4,10.8,29.74,West,261,6.3,6.3,40,0.00,,---,0.00,VWS V14.01,2013-03-04 00:39:00,
2013-03-03 19:44:00,32.2,10.6,29.74,NNE,16,3.6,4.0,40,0.00,,---,0.00,VWS V14.01,2013-03-04 00:44:00,
2013-03-03 19:49:00,32.2,10.6,29.74,NW,307,7.6,7.6,40,0.00,,---,0.00,VWS V14.01,2013-03-04 00:49:00,
2013-03-03 19:54:00,32.0,10.4,29.74,WNW,303,4.0,4.0,40,0.00,,---,0.00,VWS V14.01,2013-03-04 00:54:00,
2013-03-03 19:59:00,31.8,10.3,29.74,NNW,344,0.0,4.9,40,0.00,,---,0.00,VWS V14.01,2013-03-04 00:59:00,
2013-03-03 20:04:00,31.6,10.1,29.74,North,357,2.7,2.7,40,0.00,,---,0.00,VWS V14.01,2013-03-04 01:04:00,
2013-03-03 20:09:00,31.5,9.9,29.74,North,0,2.7,5.4,40,0.00,,---,0.00,VWS V14.01,2013-03-04 01:09:00,
2013-03-03 20:14:00,31.6,10.1,29.74,West,281,3.6,3.6,40,0.00,,---,0.00,VWS V14.01,2013-03-04 01:14:00,
2013-03-03 20:19:00,31.6,10.1,29.74,NNE,12,0.0,4.9,40,0.00,,---,0.00,VWS V14.01,2013-03-04 01:19:00,
2013-03-03 20:24:00,31.8,10.3,29.74,NNW,327,3.6,5.4,40,0.00,,---,0.00,VWS V14.01,2013-03-04 01:24:00,
2013-03-03 20:29:00,31.6,10.1,29.74,North,353,3.1,4.0,40,0.00,,---,0.00,VWS V14.01,2013-03-04 01:29:00,
2013-03-03 20:34:00,31.6,10.1,29.74,NE,43,3.1,3.6,40,0.00,,---,0.00,VWS V14.01,2013-03-04 01:34:00,
2013-03-03 20:39:00,31.3,9.8,29.74,North,0,4.0,4.9,40,0.00,,---,0.00,VWS V14.01,2013-03-04 01:39:00,
2013-03-03 20:44:00,31.3,9.8,29.74,NNW,328,2.2,2.2,40,0.00,,---,0.00,VWS V14.01,2013-03-04 01:44:00,
2013-03-03 20:49:00,31.6,10.1,29.74,North,357,6.3,6.3,40,0.00,,---,0.00,VWS V14.01,2013-03-04 01:49:00,
2013-03-03 20:54:00,31.5,9.9,29.74,NNW,342,0.0,3.6,40,0.00,,---,0.00,VWS V14.01,2013-03-04 01:54:00,
2013-03-03 20:59:00,31.5,9.9,29.74,North,349,2.7,5.8,40,0.00,,---,0.00,VWS V14.01,2013-03-04 01:59:00,
2013-03-03 21:04:00,31.3,9.8,29.74,NW,319,5.4,6.3,40,0.00,,---,0.00,VWS V14.01,2013-03-04 02:04:00,
2013-03-03 21:09:00,31.1,9.6,29.74,ENE,72,4.0,4.0,40,0.00,,---,0.00,VWS V14.01,2013-03-04 02:09:00,
2013-03-03 21:14:00,31.1,9.6,29.74,North,353,5.8,7.6,40,0.00,,---,0.00,VWS V14.01,2013-03-04 02:14:00,
2013-03-03 21:19:00,31.1,9.6,29.74,North,8,3.6,6.3,40,0.00,,---,0.00,VWS V14.01,2013-03-04 02:19:00,
2013-03-03 21:24:00,30.9,9.4,29.74,North,3,2.7,3.1,40,0.00,,---,0.00,VWS V14.01,2013-03-04 02:24:00,
2013-03-03 21:29:00,30.9,9.4,29.74,NNW,331,3.6,3.6,40,0.00,,---,0.00,VWS V14.01,2013-03-04 02:29:00,
2013-03-03 21:34:00,30.7,9.3,29.74,North,353,0.0,3.1,40,0.00,,---,0.00,VWS V14.01,2013-03-04 02:34:00,
2013-03-03 21:39:00,30.4,9.0,29.74,NNW,331,3.6,3.6,40,0.00,,---,0.00,VWS V14.01,2013-03-04 02:39:00,
2013-03-03 21:44:00,30.2,9.4,29.74,North,1,0.0,2.7,41,0.00,,---,0.00,VWS V14.01,2013-03-04 02:44:00,
2013-03-03 21:49:00,30.0,9.2,29.74,ENE,64,0.0,0.0,41,0.00,,---,0.00,VWS V14.01,2013-03-04 02:49:00,
2013-03-03 21:54:00,29.8,9.0,29.74,SSW,198,3.1,3.1,41,0.00,,---,0.00,VWS V14.01,2013-03-04 02:54:00,
2013-03-03 21:59:00,29.7,8.9,29.74,North,357,2.2,4.9,41,0.00,,---,0.00,VWS V14.01,2013-03-04 02:59:00,
2013-03-03 22:04:00,29.7,8.9,29.74,NNW,335,2.2,4.9,41,0.00,,---,0.00,VWS V14.01,2013-03-04 03:04:00,
2013-03-03 22:09:00,30.0,9.2,29.74,North,4,4.0,6.3,41,0.00,,---,0.00,VWS V14.01,2013-03-04 03:09:00,
2013-03-03 22:14:00,29.8,9.0,29.74,East,98,7.6,7.6,41,0.00,,---,0.00,VWS V14.01,2013-03-04 03:14:00,
2013-03-03 22:19:00,29.8,9.0,29.74,NE,44,4.0,4.0,41,0.00,,---,0.00,VWS V14.01,2013-03-04 03:19:00,
2013-03-03 22:24:00,29.7,8.9,29.77,WSW,253,3.1,3.1,41,0.00,,---,0.00,VWS V14.01,2013-03-04 03:24:00,
2013-03-03 22:29:00,29.7,8.9,29.77,NNW,345,3.1,5.4,41,0.00,,---,0.00,VWS V14.01,2013-03-04 03:29:00,
2013-03-03 22:34:00,29.5,8.7,29.77,North,353,3.1,3.6,41,0.00,,---,0.00,VWS V14.01,2013-03-04 03:34:00,
2013-03-03 22:39:00,29.5,8.7,29.77,NNE,12,4.0,4.0,41,0.00,,---,0.00,VWS V14.01,2013-03-04 03:39:00,
2013-03-03 22:44:00,29.5,8.7,29.77,WNW,296,0.0,2.7,41,0.00,,---,0.00,VWS V14.01,2013-03-04 03:44:00,
2013-03-03 22:49:00,29.3,8.5,29.77,NW,310,2.2,4.0,41,0.00,,---,0.00,VWS V14.01,2013-03-04 03:49:00,
2013-03-03 22:54:00,29.3,8.5,29.77,NNE,26,2.7,5.8,41,0.00,,---,0.00,VWS V14.01,2013-03-04 03:54:00,
2013-03-03 22:59:00,29.5,8.7,29.77,North,11,5.8,5.8,41,0.00,,---,0.00,VWS V14.01,2013-03-04 03:59:00,
2013-03-03 23:04:00,29.5,8.7,29.77,NE,41,7.6,7.6,41,0.00,,---,0.00,VWS V14.01,2013-03-04 04:04:00,
2013-03-03 23:09:00,29.5,8.7,29.77,NNW,328,4.5,4.9,41,0.00,,---,0.00,VWS V14.01,2013-03-04 04:09:00,
2013-03-03 23:14:00,29.5,8.7,29.77,NNW,332,3.1,5.8,41,0.00,,---,0.00,VWS V14.01,2013-03-04 04:14:00,
2013-03-03 23:19:00,29.3,8.5,29.77,NNW,329,0.0,3.1,41,0.00,,---,0.00,VWS V14.01,2013-03-04 04:19:00,
2013-03-03 23:24:00,29.3,8.5,29.77,WSW,242,2.7,3.6,41,0.00,,---,0.00,VWS V14.01,2013-03-04 04:24:00,
2013-03-03 23:29:00,29.5,8.7,29.77,North,2,5.8,8.7,41,0.00,,---,0.00,VWS V14.01,2013-03-04 04:29:00,
2013-03-03 23:34:00,29.3,8.5,29.77,North,5,4.9,4.9,41,0.00,,---,0.00,VWS V14.01,2013-03-04 04:34:00,
2013-03-03 23:39:00,28.9,8.2,29.77,NNW,338,3.1,3.6,41,0.00,,---,0.00,VWS V14.01,2013-03-04 04:39:00,
2013-03-03 23:44:00,28.9,8.2,29.77,WNW,301,6.3,6.3,41,0.00,,---,0.00,VWS V14.01,2013-03-04 04:44:00,
2013-03-03 23:49:00,29.1,8.4,29.77,North,8,4.9,5.4,41,0.00,,---,0.00,VWS V14.01,2013-03-04 04:49:00,
2013-03-03 23:54:00,28.9,8.2,29.77,North,10,6.3,6.3,41,0.00,,---,0.00,VWS V14.01,2013-03-04 04:54:00,
2013-03-03 23:59:00,28.8,8.0,29.77,NE,43,2.7,3.1,41,0.00,,---,0.00,VWS V14.01,2013-03-04 04:59:00,